createdAt,value
2023-01-04T00:02:04.399Z,12.20
2023-01-04T00:04:32.722Z,9.90
2023-01-04T00:07:01.059Z,9.63
2023-01-04T00:09:29.403Z,8.57
2023-01-04T00:11:57.672Z,8.23
2023-01-04T00:14:27.477Z,7.80
2023-01-04T00:16:55.739Z,7.53
2023-01-04T00:19:24.270Z,7.40
2023-01-04T00:21:53.300Z,8.00
2023-01-04T00:24:21.748Z,8.30
2023-01-04T00:26:50.068Z,8.47
2023-01-04T00:29:18.433Z,8.60
2023-01-04T00:31:48.202Z,8.37
2023-01-04T00:34:18.487Z,8.33
2023-01-04T00:36:47.193Z,8.60
2023-01-04T00:39:16.999Z,7.90
2023-01-04T00:42:02.919Z,8.40
2023-01-04T00:44:31.443Z,7.80
2023-01-04T00:47:03.751Z,7.73
2023-01-04T00:49:35.360Z,7.70
2023-01-04T00:52:03.716Z,7.60
2023-01-04T00:54:32.114Z,7.23
2023-01-04T00:57:01.370Z,7.00
2023-01-04T00:59:30.110Z,7.70
2023-01-04T01:02:00.298Z,7.17
2023-01-04T01:04:28.888Z,7.17
2023-01-04T01:06:57.405Z,7.10
2023-01-04T01:09:25.863Z,6.73
2023-01-04T01:11:55.343Z,6.53
2023-01-04T01:14:26.052Z,7.23
2023-01-04T01:16:57.103Z,7.50
2023-01-04T01:19:28.088Z,7.40
2023-01-04T01:21:57.807Z,6.77
2023-01-04T01:24:26.659Z,6.03
2023-01-04T01:26:55.746Z,6.53
2023-01-04T01:29:24.522Z,6.60
2023-01-04T01:31:53.077Z,6.73
2023-01-04T01:34:21.688Z,6.00
2023-01-04T01:36:51.376Z,6.30
2023-01-04T01:39:19.885Z,6.37
2023-01-04T01:41:48.347Z,6.13
2023-01-04T01:44:53.827Z,6.07
2023-01-04T01:47:24.568Z,6.00
2023-01-04T01:49:55.192Z,5.90
2023-01-04T01:52:28.913Z,5.80
2023-01-04T01:55:01.098Z,5.40
2023-01-04T01:57:32.822Z,5.47
2023-01-04T02:00:06.685Z,6.03
2023-01-04T02:02:35.746Z,6.00
2023-01-04T02:05:05.636Z,5.97
2023-01-04T02:07:36.891Z,6.70
2023-01-04T02:10:06.035Z,7.13
2023-01-04T02:12:34.345Z,7.00
2023-01-04T02:15:02.852Z,7.30
2023-01-04T02:17:40.650Z,7.23
2023-01-04T02:20:40.251Z,6.97
2023-01-04T02:24:02.535Z,6.93
2023-01-04T02:27:01.069Z,6.70
2023-01-04T02:29:59.475Z,6.50
2023-01-04T02:32:42.017Z,7.13
2023-01-04T02:35:19.014Z,7.00
2023-01-04T02:37:53.274Z,6.50
2023-01-04T02:40:28.023Z,6.77
2023-01-04T02:43:21.260Z,6.57
2023-01-04T02:45:57.258Z,7.37
2023-01-04T02:48:44.670Z,7.33
2023-01-04T02:51:30.106Z,7.23
2023-01-04T02:54:01.446Z,7.13
2023-01-04T02:56:39.176Z,7.10
2023-01-04T02:59:22.477Z,6.80
2023-01-04T03:02:16.182Z,6.43
2023-01-04T03:05:13.529Z,7.13
2023-01-04T03:07:50.522Z,7.47
2023-01-04T03:10:25.649Z,7.07
2023-01-04T03:13:02.899Z,7.90
2023-01-04T03:15:35.358Z,7.23
2023-01-04T03:18:11.549Z,6.97
2023-01-04T03:20:43.381Z,6.90
2023-01-04T03:23:32.392Z,6.47
2023-01-04T03:26:25.416Z,7.40
2023-01-04T03:29:12.633Z,7.40
2023-01-04T03:32:04.263Z,7.23
2023-01-04T03:34:50.247Z,6.90
2023-01-04T03:37:25.019Z,6.97
2023-01-04T03:40:26.687Z,6.90
2023-01-04T03:43:17.630Z,7.10
2023-01-04T03:46:08.743Z,7.67
2023-01-04T03:48:44.921Z,7.37
2023-01-04T03:51:16.681Z,7.57
2023-01-04T03:53:53.058Z,7.73
2023-01-04T03:56:24.221Z,7.50
2023-01-04T03:58:54.970Z,7.40
2023-01-04T04:01:26.044Z,8.43
2023-01-04T04:04:12.365Z,7.50
2023-01-04T04:06:58.312Z,7.40
2023-01-04T04:09:28.026Z,7.57
2023-01-04T04:11:56.254Z,8.00
2023-01-04T04:14:24.772Z,7.97
2023-01-04T04:16:53.401Z,7.47
2023-01-04T04:19:22.173Z,7.80
2023-01-04T04:21:50.689Z,7.90
2023-01-04T04:24:20.678Z,8.40
2023-01-04T04:26:50.645Z,7.40
2023-01-04T04:29:19.141Z,7.80
2023-01-04T04:31:47.670Z,8.27
2023-01-04T04:34:16.318Z,7.80
2023-01-04T04:36:44.777Z,8.27
2023-01-04T04:39:13.803Z,7.97
2023-01-04T04:41:41.923Z,7.60
2023-01-04T04:44:14.168Z,8.07
2023-01-04T04:46:43.289Z,8.20
2023-01-04T04:49:13.751Z,8.43
2023-01-04T04:51:42.363Z,8.10
2023-01-04T04:54:13.035Z,8.70
2023-01-04T04:56:41.298Z,8.37
2023-01-04T04:59:09.778Z,8.60
2023-01-04T05:01:39.604Z,8.57
2023-01-04T05:04:08.036Z,8.03
2023-01-04T05:06:37.009Z,8.43
2023-01-04T05:09:05.555Z,8.17
2023-01-04T05:11:52.157Z,8.27
2023-01-04T05:14:20.689Z,8.77
2023-01-04T05:16:50.605Z,8.37
2023-01-04T05:19:19.520Z,9.23
2023-01-04T05:21:47.766Z,8.83
2023-01-04T05:24:16.305Z,9.27
2023-01-04T05:26:44.598Z,9.47
2023-01-04T05:29:32.912Z,9.50
2023-01-04T05:32:01.631Z,9.13
2023-01-04T05:34:29.964Z,9.27
2023-01-04T05:36:58.296Z,9.17
2023-01-04T05:39:26.665Z,8.30
2023-01-04T05:42:12.049Z,9.03
2023-01-04T05:44:40.342Z,9.20
2023-01-04T05:47:14.857Z,8.10
2023-01-04T05:49:43.871Z,8.43
2023-01-04T05:52:12.621Z,8.50
2023-01-04T05:54:40.991Z,8.13
2023-01-04T05:57:09.697Z,8.67
2023-01-04T05:59:41.969Z,8.27
2023-01-04T06:02:16.501Z,8.40
2023-01-04T06:04:45.247Z,8.03
2023-01-04T06:07:13.579Z,8.63
2023-01-04T06:09:42.081Z,7.90
2023-01-04T06:12:10.921Z,7.83
2023-01-04T06:14:39.388Z,7.27
2023-01-04T06:17:08.488Z,7.90
2023-01-04T06:19:38.352Z,8.20
2023-01-04T06:22:07.032Z,8.47
2023-01-04T06:24:35.435Z,8.60
2023-01-04T06:27:04.376Z,7.97
2023-01-04T06:29:32.759Z,7.70
2023-01-04T06:32:01.021Z,7.60
2023-01-04T06:34:31.511Z,8.43
2023-01-04T06:37:01.409Z,8.73
2023-01-04T06:39:29.978Z,8.40
2023-01-04T06:42:05.754Z,8.27
2023-01-04T06:44:34.875Z,9.03
2023-01-04T06:47:03.253Z,8.70
2023-01-04T06:49:31.487Z,8.93
2023-01-04T06:52:01.247Z,7.70
2023-01-04T06:54:29.873Z,8.27
2023-01-04T06:56:58.818Z,8.37
2023-01-04T06:59:27.121Z,8.63
2023-01-04T07:01:55.628Z,8.07
2023-01-04T07:04:24.093Z,8.70
2023-01-04T07:06:52.406Z,8.73
2023-01-04T07:09:22.187Z,8.70
2023-01-04T07:11:50.599Z,8.97
2023-01-04T07:14:19.046Z,8.60
2023-01-04T07:16:47.437Z,8.53
2023-01-04T07:19:16.053Z,9.23
2023-01-04T07:21:44.347Z,8.73
2023-01-04T07:24:12.983Z,9.40
2023-01-04T07:26:42.621Z,9.30
2023-01-04T07:29:17.363Z,8.50
2023-01-04T07:31:47.661Z,8.70
2023-01-04T07:34:17.664Z,8.53
2023-01-04T07:36:46.166Z,8.33
2023-01-04T07:39:14.493Z,8.17
2023-01-04T07:41:44.385Z,8.07
2023-01-04T07:44:13.927Z,8.90
2023-01-04T07:46:42.762Z,8.43
2023-01-04T07:49:17.389Z,9.03
2023-01-04T07:51:47.143Z,9.57
2023-01-04T07:54:15.785Z,9.67
2023-01-04T07:56:46.051Z,10.07
2023-01-04T07:59:16.134Z,12.17
2023-01-04T08:01:44.538Z,13.77
2023-01-04T08:04:14.786Z,13.67
2023-01-04T08:06:44.299Z,13.50
2023-01-04T08:09:13.858Z,13.37
2023-01-04T08:11:42.168Z,12.40
2023-01-04T08:14:12.740Z,11.87
2023-01-04T08:16:42.817Z,11.50
2023-01-04T08:19:15.266Z,11.97
2023-01-04T08:21:44.194Z,11.40
2023-01-04T08:24:13.303Z,11.47
2023-01-04T08:26:42.067Z,13.50
2023-01-04T08:29:12.012Z,13.60
2023-01-04T08:31:41.160Z,13.33
2023-01-04T08:34:10.789Z,13.73
2023-01-04T08:36:48.030Z,13.27
2023-01-04T08:39:16.536Z,15.10
2023-01-04T08:42:01.763Z,16.53
2023-01-04T08:44:35.773Z,16.60
2023-01-04T08:47:04.444Z,16.10
2023-01-04T08:49:32.914Z,16.53
2023-01-04T08:52:01.345Z,14.07
2023-01-04T08:54:29.653Z,14.40
2023-01-04T08:56:57.932Z,14.10
2023-01-04T08:59:26.463Z,13.63
2023-01-04T09:02:02.646Z,15.53
2023-01-04T09:04:33.481Z,19.87
2023-01-04T09:07:01.850Z,19.03
2023-01-04T09:09:30.577Z,16.57
2023-01-04T09:11:59.902Z,14.40
2023-01-04T09:14:28.263Z,12.00
2023-01-04T09:16:57.949Z,12.13
2023-01-04T09:19:26.337Z,12.10
2023-01-04T09:21:54.723Z,11.87
2023-01-04T09:24:23.214Z,11.60
2023-01-04T09:26:51.612Z,12.57
2023-01-04T09:29:20.027Z,12.63
2023-01-04T09:31:48.666Z,13.50
2023-01-04T09:34:18.675Z,14.40
2023-01-04T09:36:48.741Z,14.10
2023-01-04T09:39:23.084Z,14.60
2023-01-04T09:41:58.358Z,16.43
2023-01-04T09:45:21.422Z,16.43
2023-01-04T09:47:36.746Z,16.90
2023-01-04T09:50:14.250Z,18.83
2023-01-04T09:52:50.571Z,18.00
2023-01-04T09:55:38.139Z,16.30
2023-01-04T09:58:17.679Z,15.67
2023-01-04T10:00:49.908Z,15.93
2023-01-04T10:03:22.988Z,14.93
2023-01-04T10:05:55.215Z,15.53
2023-01-04T10:08:24.262Z,14.93
2023-01-04T10:11:06.069Z,15.13
2023-01-04T10:14:00.838Z,13.70
2023-01-04T10:22:43.556Z,13.27
2023-01-04T10:25:25.229Z,12.63
2023-01-04T10:28:07.287Z,11.85
2023-01-04T10:30:45.476Z,11.90
2023-01-04T10:33:15.615Z,13.20
2023-01-04T10:35:46.207Z,13.30
2023-01-04T10:38:19.236Z,12.73
2023-01-04T10:40:50.519Z,12.90
2023-01-04T10:43:28.497Z,13.55
2023-01-04T10:46:07.766Z,13.70
2023-01-04T10:48:42.319Z,13.13
2023-01-04T10:51:13.330Z,12.48
2023-01-04T10:53:48.096Z,14.85
2023-01-04T10:56:27.134Z,14.63
2023-01-04T10:59:01.704Z,15.93
2023-01-04T11:01:34.967Z,14.45
2023-01-04T11:04:07.383Z,13.73
2023-01-04T11:06:41.393Z,13.63
2023-01-04T11:09:22.963Z,13.02
2023-01-04T11:11:56.571Z,13.40
2023-01-04T11:14:28.527Z,12.55
2023-01-04T11:17:05.677Z,12.65
2023-01-04T11:19:35.354Z,11.50
2023-01-04T11:22:13.265Z,11.27
2023-01-04T11:25:24.628Z,12.80
2023-01-04T11:27:43.210Z,11.48
2023-01-04T11:30:18.659Z,10.65
2023-01-04T11:32:56.233Z,12.60
2023-01-04T11:35:45.600Z,11.90
2023-01-04T11:38:16.576Z,12.70
2023-01-04T11:41:00.553Z,13.40
2023-01-04T11:43:29.754Z,12.27
2023-01-04T11:46:01.832Z,11.82
2023-01-04T11:48:36.861Z,11.98
2023-01-04T11:51:06.567Z,11.77
2023-01-04T11:53:36.644Z,12.88
2023-01-04T11:56:27.725Z,12.68
2023-01-04T11:59:20.718Z,12.50
2023-01-04T12:02:12.085Z,12.52
2023-01-04T12:04:41.065Z,14.32
2023-01-04T12:07:18.513Z,14.77
2023-01-04T12:09:47.006Z,12.43
2023-01-04T12:12:16.930Z,13.48
2023-01-04T12:14:55.007Z,13.93
2023-01-04T12:17:43.538Z,16.30
2023-01-04T12:20:31.063Z,15.10
2023-01-04T12:23:12.825Z,13.80
2023-01-04T12:25:50.576Z,13.07
2023-01-04T12:28:37.793Z,12.15
2023-01-04T12:31:29.204Z,10.57
2023-01-04T12:33:58.975Z,10.45
2023-01-04T12:37:05.277Z,10.50
2023-01-04T12:39:45.782Z,9.18
2023-01-04T12:42:22.143Z,9.80
2023-01-04T12:45:18.535Z,9.85
2023-01-04T12:48:21.982Z,10.65
2023-01-04T12:51:31.621Z,9.25
2023-01-04T12:54:06.840Z,10.05
2023-01-04T13:00:25.367Z,9.77
2023-01-04T13:03:27.681Z,9.65
2023-01-04T13:06:07.522Z,8.70
2023-01-04T13:09:00.247Z,10.07
2023-01-04T13:12:06.193Z,10.05
2023-01-04T13:14:42.193Z,8.75
2023-01-04T13:17:26.258Z,9.00
2023-01-04T13:22:54.616Z,9.57
2023-01-04T13:25:24.886Z,9.25
2023-01-04T13:28:03.929Z,8.60
2023-01-04T13:30:43.323Z,9.43
2023-01-04T13:33:26.933Z,8.70
2023-01-04T13:36:04.409Z,9.25
2023-01-04T13:38:34.881Z,10.57
2023-01-04T13:41:05.945Z,10.02
2023-01-04T13:44:01.436Z,9.57
2023-01-04T13:46:29.944Z,9.48
2023-01-04T13:49:03.738Z,9.20
2023-01-04T13:51:37.696Z,10.75
2023-01-04T13:54:21.099Z,10.48
2023-01-04T13:56:58.272Z,9.80
2023-01-04T13:59:31.880Z,10.00
2023-01-04T14:02:00.303Z,8.85
2023-01-04T14:04:33.845Z,8.10
2023-01-04T14:07:02.928Z,7.47
2023-01-04T14:09:33.879Z,8.40
2023-01-04T14:12:09.568Z,8.38
2023-01-04T14:14:42.112Z,9.15
2023-01-04T14:17:23.270Z,9.77
2023-01-04T14:19:55.752Z,10.13
2023-01-04T14:22:39.004Z,11.88
2023-01-04T14:25:40.855Z,11.60
2023-01-04T14:31:38.515Z,10.68
2023-01-04T14:34:12.715Z,11.85
2023-01-04T14:36:43.290Z,12.13
2023-01-04T14:39:22.943Z,11.10
2023-01-04T14:41:57.710Z,10.52
2023-01-04T14:44:31.625Z,10.98
2023-01-04T14:47:01.263Z,11.40
2023-01-04T14:49:31.744Z,11.98
2023-01-04T14:52:02.651Z,11.45
2023-01-04T14:54:35.207Z,11.13
2023-01-04T14:57:03.967Z,11.18
2023-01-04T14:59:32.560Z,11.70
2023-01-04T15:02:01.154Z,12.18
2023-01-04T15:04:29.795Z,11.52
2023-01-04T15:07:01.087Z,10.32
2023-01-04T15:09:30.673Z,11.20
2023-01-04T15:11:59.509Z,20.65
2023-01-04T15:14:27.788Z,16.15
2023-01-04T15:16:56.144Z,14.15
2023-01-04T15:19:24.496Z,12.40
2023-01-04T15:21:52.736Z,11.38
2023-01-04T15:24:22.653Z,11.23
2023-01-04T15:26:50.945Z,10.85
2023-01-04T15:29:19.206Z,10.77
2023-01-04T15:31:47.536Z,10.35
2023-01-04T15:34:15.972Z,11.32
2023-01-04T15:36:44.477Z,11.40
2023-01-04T15:39:14.438Z,11.88
2023-01-04T15:42:02.027Z,12.23
2023-01-04T15:44:30.552Z,13.30
2023-01-04T15:47:00.218Z,11.73
2023-01-04T15:49:31.192Z,12.55
2023-01-04T15:51:59.597Z,13.18
2023-01-04T15:54:28.655Z,12.40
2023-01-04T15:56:58.918Z,13.50
2023-01-04T15:59:27.451Z,12.85
2023-01-04T16:01:56.382Z,13.20
2023-01-04T16:04:25.143Z,12.48
2023-01-04T16:06:54.151Z,13.68
2023-01-04T16:09:23.376Z,13.10
2023-01-04T16:12:24.234Z,13.60
2023-01-04T16:14:54.584Z,14.50
2023-01-04T16:17:22.825Z,13.47
2023-01-04T16:19:51.132Z,13.27
2023-01-04T16:22:19.695Z,12.67
2023-01-04T16:27:39.378Z,14.00
2023-01-04T16:30:14.252Z,14.83
2023-01-04T16:32:44.198Z,19.03
2023-01-04T16:35:13.408Z,22.50
2023-01-04T16:37:43.107Z,18.20
2023-01-04T16:40:12.658Z,16.88
2023-01-04T16:42:41.480Z,19.63
2023-01-04T16:45:12.233Z,18.90
2023-01-04T16:47:43.078Z,18.20
2023-01-04T16:50:15.352Z,18.13
2023-01-04T16:52:43.677Z,18.63
2023-01-04T16:55:12.432Z,18.20
2023-01-04T16:57:41.128Z,20.20
2023-01-04T17:00:13.115Z,24.77
2023-01-04T17:02:41.511Z,27.47
2023-01-04T17:05:10.498Z,29.20
2023-01-04T17:07:39.151Z,31.40
2023-01-04T17:10:09.020Z,32.17
2023-01-04T17:12:52.789Z,31.37
2023-01-04T17:15:42.521Z,33.13
2023-01-04T17:18:12.856Z,33.67
2023-01-04T17:20:42.580Z,34.80
2023-01-04T17:23:11.055Z,34.50
2023-01-04T17:25:40.032Z,29.00
2023-01-04T17:28:08.547Z,26.57
2023-01-04T17:30:40.987Z,24.43
2023-01-04T17:33:10.085Z,23.60
2023-01-04T17:35:39.449Z,23.73
2023-01-04T17:38:09.024Z,23.77
2023-01-04T17:40:38.137Z,25.13
2023-01-04T17:43:07.194Z,25.43
2023-01-04T17:45:35.700Z,21.57
2023-01-04T17:48:07.089Z,21.73
2023-01-04T17:50:35.821Z,20.93
2023-01-04T17:53:04.278Z,21.40
2023-01-04T17:55:34.755Z,21.23
2023-01-04T17:58:07.775Z,21.53
2023-01-04T18:03:09.233Z,22.77
2023-01-04T18:05:51.218Z,23.43
2023-01-04T18:08:20.539Z,24.93
2023-01-04T18:11:06.798Z,25.03
2023-01-04T18:16:24.279Z,29.47
2023-01-04T18:18:56.330Z,29.13
2023-01-04T18:21:28.828Z,29.63
2023-01-04T18:24:34.913Z,33.33
2023-01-04T18:29:39.195Z,25.60
2023-01-04T18:32:07.609Z,26.23
2023-01-04T18:34:37.371Z,25.83
2023-01-04T18:37:05.761Z,27.97
2023-01-04T18:39:34.160Z,30.30
2023-01-04T18:42:02.518Z,33.43
2023-01-04T18:44:33.896Z,34.93
2023-01-04T18:47:04.143Z,37.10
2023-01-04T18:49:32.689Z,35.80
2023-01-04T18:52:02.546Z,31.50
2023-01-04T18:54:30.891Z,28.57
2023-01-04T18:57:01.228Z,27.20
2023-01-04T18:59:30.029Z,27.37
2023-01-04T19:02:01.641Z,26.23
2023-01-04T19:04:31.095Z,26.30
2023-01-04T19:06:59.472Z,26.70
2023-01-04T19:09:29.204Z,26.10
2023-01-04T19:11:57.645Z,25.67
2023-01-04T19:14:26.006Z,24.93
2023-01-04T19:16:54.509Z,25.20
2023-01-04T19:19:22.939Z,23.80
2023-01-04T19:21:51.247Z,27.60
2023-01-04T19:24:19.670Z,30.53
2023-01-04T19:26:49.385Z,28.60
2023-01-04T19:29:17.812Z,29.60
2023-01-04T19:31:46.231Z,32.53
2023-01-04T19:34:14.744Z,48.57
2023-01-04T19:36:43.048Z,37.70
2023-01-04T19:39:11.392Z,40.43
2023-01-04T19:41:39.906Z,33.07
2023-01-04T19:44:12.108Z,31.80
2023-01-04T19:46:41.746Z,26.80
2023-01-04T19:49:15.192Z,25.63
2023-01-04T19:51:46.450Z,24.83
2023-01-04T19:54:19.872Z,23.77
2023-01-04T19:56:52.300Z,24.13
2023-01-04T19:59:23.695Z,22.00
2023-01-04T20:01:52.784Z,21.83
2023-01-04T20:04:21.993Z,20.83
2023-01-04T20:06:50.481Z,21.00
2023-01-04T20:09:24.866Z,22.67
2023-01-04T20:11:54.237Z,22.47
2023-01-04T20:14:24.147Z,22.20
2023-01-04T20:16:52.651Z,23.33
2023-01-04T20:19:21.520Z,25.27
2023-01-04T20:21:50.311Z,27.60
2023-01-04T20:24:18.886Z,26.50
2023-01-04T20:26:47.794Z,26.03
2023-01-04T20:29:16.334Z,26.70
2023-01-04T20:31:46.266Z,26.70
2023-01-04T20:34:15.446Z,28.57
2023-01-04T20:36:43.979Z,27.93
2023-01-04T20:39:14.391Z,26.37
2023-01-04T20:42:04.271Z,27.03
2023-01-04T20:44:31.674Z,29.20
2023-01-04T20:47:01.416Z,31.80
2023-01-04T20:49:29.820Z,33.83
2023-01-04T20:52:02.735Z,33.93
2023-01-04T20:54:31.135Z,37.00
2023-01-04T20:56:59.531Z,34.70
2023-01-04T20:59:28.242Z,36.70
2023-01-04T21:01:57.159Z,35.30
2023-01-04T21:04:28.196Z,35.73
2023-01-04T21:06:56.562Z,34.83
2023-01-04T21:09:25.045Z,35.30
2023-01-04T21:11:55.803Z,36.33
2023-01-04T21:14:25.779Z,35.60
2023-01-04T21:16:54.272Z,35.60
2023-01-04T21:19:23.305Z,36.53
2023-01-04T21:21:53.153Z,36.30
2023-01-04T21:24:21.621Z,35.27
2023-01-04T21:26:50.367Z,35.57
2023-01-04T21:29:18.797Z,34.87
2023-01-04T21:31:47.217Z,35.07
2023-01-04T21:34:20.978Z,35.07
2023-01-04T21:36:52.876Z,35.00
2023-01-04T21:39:21.372Z,33.53
2023-01-04T21:41:51.394Z,36.93
2023-01-04T21:44:19.867Z,35.67
2023-01-04T21:46:48.303Z,35.33
2023-01-04T21:49:16.751Z,35.00
2023-01-04T21:51:45.118Z,34.00
2023-01-04T21:54:14.807Z,34.03
2023-01-04T21:56:43.091Z,33.67
2023-01-04T21:59:11.583Z,36.10
2023-01-04T22:01:40.017Z,35.03
2023-01-04T22:04:08.551Z,35.87
2023-01-04T22:06:40.454Z,35.30
2023-01-04T22:09:09.081Z,36.00
2023-01-04T22:11:40.961Z,35.70
2023-01-04T22:14:09.598Z,36.37
2023-01-04T22:16:38.211Z,36.70
2023-01-04T22:19:06.735Z,35.77
2023-01-04T22:21:35.242Z,35.83
2023-01-04T22:24:03.888Z,36.57
2023-01-04T22:26:32.427Z,34.60
2023-01-04T22:29:02.477Z,34.93
2023-01-04T22:31:31.113Z,35.43
2023-01-04T22:33:59.759Z,35.50
2023-01-04T22:36:28.770Z,36.07
2023-01-04T22:38:58.561Z,34.13
2023-01-04T22:41:28.999Z,35.10
2023-01-04T22:43:58.239Z,35.57
2023-01-04T22:46:30.056Z,34.37
2023-01-04T22:48:59.246Z,36.77
2023-01-04T22:51:29.484Z,36.13
2023-01-04T22:53:59.591Z,33.93
2023-01-04T22:56:28.452Z,33.60
2023-01-04T22:58:58.245Z,34.30
2023-01-04T23:01:30.372Z,33.23
2023-01-04T23:03:59.484Z,35.03
2023-01-04T23:06:30.037Z,35.37
2023-01-04T23:09:00.098Z,35.27
2023-01-04T23:11:30.124Z,36.80
2023-01-04T23:13:59.230Z,36.60
2023-01-04T23:16:32.778Z,36.10
2023-01-04T23:19:02.211Z,33.77
2023-01-04T23:21:30.598Z,31.43
2023-01-04T23:23:59.153Z,33.30
2023-01-04T23:26:28.927Z,33.77
2023-01-04T23:28:58.117Z,34.57
2023-01-04T23:31:30.257Z,34.77
2023-01-04T23:34:01.000Z,35.37
2023-01-04T23:36:31.649Z,33.73
2023-01-04T23:39:01.983Z,34.80
2023-01-04T23:41:46.324Z,35.03
2023-01-04T23:44:20.293Z,32.97
2023-01-04T23:46:53.854Z,34.20
2023-01-04T23:49:24.186Z,34.03
2023-01-04T23:51:52.818Z,34.13
2023-01-04T23:54:21.737Z,33.20
2023-01-04T23:56:50.050Z,33.90
2023-01-04T23:59:18.871Z,32.50
